createdAt,value
2022-09-26T00:01:18.935Z,15.83
2022-09-26T00:03:51.573Z,15.80
2022-09-26T00:06:20.315Z,15.86
2022-09-26T00:08:49.484Z,15.88
2022-09-26T00:11:20.683Z,15.89
2022-09-26T00:13:53.038Z,15.85
2022-09-26T00:16:20.890Z,15.84
2022-09-26T00:18:49.990Z,15.97
2022-09-26T00:21:18.322Z,15.99
2022-09-26T00:23:46.363Z,15.97
2022-09-26T00:26:18.151Z,15.83
2022-09-26T00:28:46.386Z,15.80
2022-09-26T00:31:18.517Z,15.80
2022-09-26T00:33:47.035Z,15.80
2022-09-26T00:36:14.706Z,15.82
2022-09-26T00:38:42.230Z,15.86
2022-09-26T00:41:09.970Z,15.86
2022-09-26T00:43:43.650Z,15.83
2022-09-26T00:46:24.043Z,15.76
2022-09-26T00:49:02.997Z,15.67
2022-09-26T00:51:31.848Z,15.63
2022-09-26T00:53:59.404Z,15.57
2022-09-26T00:56:34.122Z,15.48
2022-09-26T00:59:15.717Z,15.50
2022-09-26T01:01:43.349Z,15.52
2022-09-26T01:04:12.663Z,15.59
2022-09-26T01:06:41.518Z,15.62
2022-09-26T01:09:09.317Z,15.67
2022-09-26T01:11:37.990Z,15.67
2022-09-26T01:14:08.727Z,15.64
2022-09-26T01:16:39.311Z,15.63
2022-09-26T01:19:18.235Z,15.59
2022-09-26T01:22:28.259Z,15.54
2022-09-26T01:25:15.325Z,15.53
2022-09-26T01:28:00.440Z,15.52
2022-09-26T01:30:39.870Z,15.48
2022-09-26T01:33:33.302Z,15.53
2022-09-26T01:36:38.425Z,15.54
2022-09-26T01:39:18.113Z,15.48
2022-09-26T01:42:07.320Z,15.42
2022-09-26T01:44:41.860Z,15.31
2022-09-26T01:47:22.115Z,15.34
2022-09-26T01:49:54.091Z,15.30
2022-09-26T01:52:45.231Z,15.29
2022-09-26T01:55:18.051Z,15.34
2022-09-26T01:58:05.587Z,15.29
2022-09-26T02:00:37.654Z,15.32
2022-09-26T02:03:10.955Z,15.34
2022-09-26T02:05:54.219Z,15.35
2022-09-26T02:08:54.149Z,15.27
2022-09-26T02:11:24.702Z,15.24
2022-09-26T02:14:08.249Z,15.23
2022-09-26T02:16:46.657Z,15.21
2022-09-26T02:19:24.165Z,15.14
2022-09-26T02:21:51.990Z,15.06
2022-09-26T02:24:19.737Z,14.85
2022-09-26T02:26:47.262Z,14.77
2022-09-26T02:29:14.902Z,14.66
2022-09-26T02:31:50.541Z,14.58
2022-09-26T02:34:18.994Z,14.61
2022-09-26T02:36:46.432Z,14.61
2022-09-26T02:39:13.936Z,14.66
2022-09-26T02:42:21.688Z,14.70
2022-09-26T02:45:08.029Z,14.73
2022-09-26T02:48:02.478Z,14.76
2022-09-26T02:50:48.676Z,14.79
2022-09-26T02:53:41.499Z,14.71
2022-09-26T02:56:30.088Z,14.71
2022-09-26T02:59:03.450Z,14.72
2022-09-26T03:01:48.403Z,14.72
2022-09-26T03:04:41.470Z,14.77
2022-09-26T03:07:13.846Z,14.87
2022-09-26T03:09:42.374Z,14.75
2022-09-26T03:12:10.503Z,14.75
2022-09-26T03:14:42.240Z,14.74
2022-09-26T03:17:10.152Z,14.80
2022-09-26T03:19:45.408Z,14.71
2022-09-26T03:22:15.990Z,14.82
2022-09-26T03:24:44.269Z,14.77
2022-09-26T03:27:14.419Z,14.64
2022-09-26T03:29:42.025Z,14.56
2022-09-26T03:32:15.310Z,14.51
2022-09-26T03:34:43.249Z,14.55
2022-09-26T03:37:11.378Z,14.55
2022-09-26T03:39:38.771Z,14.56
2022-09-26T03:42:11.848Z,14.46
2022-09-26T03:44:39.653Z,14.38
2022-09-26T03:47:14.606Z,14.43
2022-09-26T03:49:44.649Z,14.42
2022-09-26T03:52:15.815Z,14.44
2022-09-26T03:54:44.879Z,14.30
2022-09-26T03:57:13.187Z,14.29
2022-09-26T03:59:46.990Z,14.43
2022-09-26T04:02:14.700Z,14.42
2022-09-26T04:04:45.645Z,14.49
2022-09-26T04:07:16.050Z,14.44
2022-09-26T04:09:43.310Z,14.40
2022-09-26T04:12:11.553Z,14.30
2022-09-26T04:14:43.470Z,14.33
2022-09-26T04:17:11.652Z,14.28
2022-09-26T04:19:42.846Z,14.43
2022-09-26T04:22:10.271Z,14.20
2022-09-26T04:24:38.524Z,14.23
2022-09-26T04:27:08.523Z,14.27
2022-09-26T04:29:36.159Z,14.41
2022-09-26T04:32:17.557Z,14.33
2022-09-26T04:35:05.169Z,14.26
2022-09-26T04:37:36.974Z,14.24
2022-09-26T04:40:04.701Z,14.16
2022-09-26T04:42:36.953Z,14.09
2022-09-26T04:45:05.463Z,14.24
2022-09-26T04:47:33.285Z,14.18
2022-09-26T04:50:29.533Z,14.16
2022-09-26T04:53:08.145Z,14.14
2022-09-26T04:56:15.645Z,14.16
2022-09-26T04:58:44.922Z,14.14
2022-09-26T05:01:18.316Z,14.14
2022-09-26T05:03:58.355Z,14.09
2022-09-26T05:06:27.712Z,14.07
2022-09-26T05:08:55.210Z,14.05
2022-09-26T05:11:43.910Z,14.09
2022-09-26T05:14:13.384Z,14.11
2022-09-26T05:16:40.875Z,14.09
2022-09-26T05:19:12.332Z,14.09
2022-09-26T05:21:48.203Z,14.03
2022-09-26T05:24:34.232Z,14.08
2022-09-26T05:27:06.223Z,13.98
2022-09-26T05:29:33.461Z,13.95
2022-09-26T05:32:04.584Z,13.78
2022-09-26T05:34:36.391Z,13.74
2022-09-26T05:37:04.612Z,13.68
2022-09-26T05:39:51.605Z,13.63
2022-09-26T05:42:19.970Z,13.77
2022-09-26T05:44:47.245Z,13.86
2022-09-26T05:47:15.711Z,13.77
2022-09-26T05:49:42.979Z,13.99
2022-09-26T05:52:14.760Z,14.18
2022-09-26T05:54:41.978Z,14.32
2022-09-26T05:57:29.293Z,14.71
2022-09-26T05:59:56.991Z,15.25
2022-09-26T06:02:24.328Z,16.07
2022-09-26T06:05:14.368Z,16.73
2022-09-26T06:08:04.294Z,17.41
2022-09-26T06:10:51.795Z,18.00
2022-09-26T06:13:21.337Z,18.51
2022-09-26T06:15:50.014Z,18.96
2022-09-26T06:18:17.573Z,19.64
2022-09-26T06:20:44.829Z,19.72
2022-09-26T06:23:13.676Z,20.17
2022-09-26T06:25:42.654Z,21.06
2022-09-26T06:28:09.951Z,21.29
2022-09-26T06:30:37.454Z,21.58
2022-09-26T06:33:32.582Z,22.11
2022-09-26T06:36:24.493Z,21.75
2022-09-26T06:38:53.982Z,21.50
2022-09-26T06:41:22.037Z,21.64
2022-09-26T06:43:49.956Z,22.07
2022-09-26T06:46:47.101Z,21.42
2022-09-26T06:49:17.963Z,21.76
2022-09-26T06:51:48.992Z,21.32
2022-09-26T06:54:17.715Z,21.88
2022-09-26T06:56:45.726Z,21.42
2022-09-26T06:59:13.054Z,20.73
2022-09-26T07:01:49.728Z,19.91
2022-09-26T07:04:35.946Z,18.12
2022-09-26T07:07:30.151Z,17.75
2022-09-26T07:09:58.005Z,17.15
2022-09-26T07:12:47.230Z,16.76
2022-09-26T07:15:19.432Z,16.32
2022-09-26T07:17:50.955Z,16.08
2022-09-26T07:20:32.093Z,15.87
2022-09-26T07:23:28.201Z,15.70
2022-09-26T07:25:55.903Z,15.63
2022-09-26T07:28:23.214Z,15.79
2022-09-26T07:30:50.938Z,16.13
2022-09-26T07:33:47.382Z,16.47
2022-09-26T07:36:15.943Z,17.00
2022-09-26T07:38:48.475Z,17.31
2022-09-26T07:41:17.600Z,17.23
2022-09-26T07:46:50.763Z,17.14
2022-09-26T07:49:36.878Z,17.42
2022-09-26T07:52:09.980Z,19.63
2022-09-26T07:54:47.538Z,21.02
2022-09-26T07:57:35.344Z,22.43
2022-09-26T08:00:24.052Z,23.72
2022-09-26T08:03:06.078Z,23.51
2022-09-26T08:05:37.216Z,24.36
2022-09-26T08:08:04.952Z,24.74
2022-09-26T08:10:50.978Z,24.73
2022-09-26T08:13:37.299Z,25.67
2022-09-26T08:16:23.535Z,26.52
2022-09-26T08:18:54.957Z,26.14
2022-09-26T08:21:26.993Z,26.38
2022-09-26T08:23:57.354Z,27.34
2022-09-26T08:26:47.116Z,27.61
2022-09-26T08:29:20.575Z,29.56
2022-09-26T08:31:51.362Z,28.95
2022-09-26T08:34:25.379Z,29.19
2022-09-26T08:37:29.496Z,28.09
2022-09-26T08:40:15.258Z,28.52
2022-09-26T08:43:30.414Z,29.65
2022-09-26T08:46:40.120Z,28.62
2022-09-26T08:49:42.587Z,29.36
2022-09-26T08:52:30.823Z,29.01
2022-09-26T08:55:01.536Z,29.18
2022-09-26T08:57:43.631Z,28.78
2022-09-26T09:00:24.848Z,29.38
2022-09-26T09:03:15.811Z,28.87
2022-09-26T09:05:59.022Z,28.87
2022-09-26T09:08:39.701Z,28.85
2022-09-26T09:12:15.036Z,28.86
2022-09-26T09:15:26.104Z,28.93
2022-09-26T09:18:20.733Z,28.23
2022-09-26T09:21:47.987Z,29.40
2022-09-26T09:24:29.627Z,30.24
2022-09-26T09:30:29.720Z,28.99
2022-09-26T09:33:09.991Z,28.96
2022-09-26T09:35:56.780Z,29.32
2022-09-26T09:38:39.028Z,30.35
2022-09-26T09:41:24.888Z,29.27
2022-09-26T09:43:56.205Z,29.96
2022-09-26T09:46:29.213Z,29.73
2022-09-26T09:49:12.149Z,29.25
2022-09-26T09:51:52.610Z,29.76
2022-09-26T09:54:39.105Z,28.94
2022-09-26T09:57:25.770Z,28.85
2022-09-26T10:00:10.058Z,28.75
2022-09-26T10:03:05.074Z,28.32
2022-09-26T10:05:47.118Z,27.57
2022-09-26T10:08:33.372Z,28.11
2022-09-26T10:11:28.231Z,27.78
2022-09-26T10:14:04.648Z,27.76
2022-09-26T10:17:08.799Z,28.07
2022-09-26T10:19:44.156Z,27.34
2022-09-26T10:22:44.948Z,28.02
2022-09-26T10:25:25.919Z,28.50
2022-09-26T10:27:59.178Z,27.65
2022-09-26T10:30:33.099Z,27.12
2022-09-26T10:33:05.650Z,27.45
2022-09-26T10:35:48.193Z,27.04
2022-09-26T10:38:27.401Z,27.00
2022-09-26T10:41:06.496Z,26.58
2022-09-26T10:43:40.109Z,26.74
2022-09-26T10:46:27.200Z,27.65
2022-09-26T10:49:23.583Z,27.72
2022-09-26T10:52:02.315Z,28.38
2022-09-26T10:54:41.208Z,27.74
2022-09-26T10:57:19.843Z,27.48
2022-09-26T10:59:49.351Z,27.02
2022-09-26T11:02:21.972Z,26.85
2022-09-26T11:05:23.222Z,26.23
2022-09-26T11:07:56.726Z,25.76
2022-09-26T11:10:48.896Z,26.00
2022-09-26T11:13:23.965Z,26.47
2022-09-26T11:16:08.853Z,26.41
2022-09-26T11:18:46.028Z,26.04
2022-09-26T11:21:38.631Z,26.16
2022-09-26T11:24:15.834Z,25.99
2022-09-26T11:27:25.657Z,26.20
2022-09-26T11:29:56.055Z,25.33
2022-09-26T11:32:33.540Z,25.30
2022-09-26T11:35:45.784Z,25.28
2022-09-26T11:38:39.865Z,24.77
2022-09-26T11:41:38.497Z,24.22
2022-09-26T11:44:44.368Z,24.10
2022-09-26T11:47:52.932Z,23.26
2022-09-26T11:50:40.084Z,23.05
2022-09-26T11:53:42.387Z,23.12
2022-09-26T11:56:15.886Z,23.62
2022-09-26T11:59:04.749Z,24.01
2022-09-26T12:02:01.246Z,24.13
2022-09-26T12:05:05.769Z,23.74
2022-09-26T12:08:04.604Z,23.10
2022-09-26T12:10:47.123Z,23.35
2022-09-26T12:13:17.396Z,23.70
2022-09-26T12:16:09.949Z,24.32
2022-09-26T12:18:43.567Z,24.67
2022-09-26T12:22:05.914Z,24.99
2022-09-26T12:24:57.578Z,25.05
2022-09-26T12:27:50.490Z,24.56
2022-09-26T12:30:24.881Z,24.52
2022-09-26T12:33:30.549Z,23.95
2022-09-26T12:36:21.455Z,23.35
2022-09-26T12:39:07.169Z,23.08
2022-09-26T12:42:16.509Z,23.61
2022-09-26T12:44:52.371Z,24.66
2022-09-26T12:48:01.561Z,24.11
2022-09-26T12:50:58.420Z,24.45
2022-09-26T12:53:37.626Z,24.15
2022-09-26T12:56:09.294Z,24.58
2022-09-26T12:58:57.808Z,24.92
2022-09-26T13:01:48.839Z,25.03
2022-09-26T13:04:32.030Z,25.01
2022-09-26T13:07:20.939Z,24.99
2022-09-26T13:09:51.616Z,25.32
2022-09-26T13:12:49.100Z,25.16
2022-09-26T13:15:46.451Z,25.09
2022-09-26T13:18:38.061Z,25.10
2022-09-26T13:21:13.967Z,25.09
2022-09-26T13:23:49.763Z,25.09
2022-09-26T13:26:26.596Z,25.16
2022-09-26T13:29:17.503Z,25.14
2022-09-26T13:32:05.776Z,25.15
2022-09-26T13:34:40.593Z,25.01
2022-09-26T13:37:22.666Z,24.19
2022-09-26T13:39:59.097Z,23.38
2022-09-26T13:42:42.858Z,23.38
2022-09-26T13:45:30.188Z,22.94
2022-09-26T13:48:08.029Z,22.89
2022-09-26T13:50:50.714Z,23.69
2022-09-26T13:53:44.791Z,24.10
2022-09-26T13:56:46.887Z,24.59
2022-09-26T13:59:14.687Z,24.84
2022-09-26T14:02:19.835Z,24.82
2022-09-26T14:04:50.903Z,24.80
2022-09-26T14:08:08.912Z,24.05
2022-09-26T14:10:39.770Z,23.98
2022-09-26T14:13:10.029Z,24.58
2022-09-26T14:15:49.441Z,24.83
2022-09-26T14:18:44.867Z,24.65
2022-09-26T14:21:35.806Z,24.92
2022-09-26T14:24:24.061Z,25.07
2022-09-26T14:27:03.562Z,24.97
2022-09-26T14:29:43.983Z,24.79
2022-09-26T14:32:36.223Z,24.87
2022-09-26T14:35:23.674Z,24.90
2022-09-26T14:38:01.277Z,24.92
2022-09-26T14:40:30.848Z,24.47
2022-09-26T14:43:05.987Z,24.50
2022-09-26T14:45:44.399Z,24.34
2022-09-26T14:48:11.807Z,24.60
2022-09-26T14:50:50.225Z,24.52
2022-09-26T14:53:25.141Z,24.37
2022-09-26T14:56:06.199Z,24.00
2022-09-26T14:58:47.873Z,24.09
2022-09-26T15:01:25.434Z,24.32
2022-09-26T15:04:10.574Z,24.18
2022-09-26T15:06:51.808Z,23.87
2022-09-26T15:09:25.495Z,24.03
2022-09-26T15:12:08.352Z,23.96
2022-09-26T15:14:49.959Z,23.90
2022-09-26T15:17:27.583Z,24.10
2022-09-26T15:19:57.314Z,24.01
2022-09-26T15:22:27.060Z,24.03
2022-09-26T15:25:06.555Z,23.73
2022-09-26T15:27:36.085Z,23.46
2022-09-26T15:30:18.257Z,23.59
2022-09-26T15:32:49.174Z,23.54
2022-09-26T15:35:17.114Z,23.57
2022-09-26T15:37:45.777Z,23.69
2022-09-26T15:40:15.751Z,23.73
2022-09-26T15:42:58.340Z,23.52
2022-09-26T15:45:35.583Z,23.45
2022-09-26T15:48:20.740Z,23.34
2022-09-26T15:50:51.801Z,23.12
2022-09-26T15:53:33.670Z,23.08
2022-09-26T15:56:09.696Z,23.10
2022-09-26T15:59:01.008Z,22.90
2022-09-26T16:01:30.810Z,22.82
2022-09-26T16:04:03.197Z,22.89
2022-09-26T16:06:36.607Z,22.88
2022-09-26T16:09:06.939Z,22.83
2022-09-26T16:11:50.112Z,22.71
2022-09-26T16:14:41.437Z,22.64
2022-09-26T16:17:37.452Z,22.65
2022-09-26T16:20:13.931Z,22.61
2022-09-26T16:22:51.185Z,22.47
2022-09-26T16:25:18.812Z,22.31
2022-09-26T16:27:52.378Z,22.04
2022-09-26T16:30:25.753Z,21.87
2022-09-26T16:32:54.461Z,21.83
2022-09-26T16:35:30.021Z,21.80
2022-09-26T16:38:05.386Z,21.73
2022-09-26T16:40:34.849Z,21.64
2022-09-26T16:43:12.578Z,21.51
2022-09-26T16:46:01.637Z,21.35
2022-09-26T16:48:42.341Z,21.25
2022-09-26T16:51:22.043Z,20.99
2022-09-26T16:53:53.428Z,20.90
2022-09-26T16:56:23.542Z,20.86
2022-09-26T16:58:55.600Z,20.81
2022-09-26T17:01:42.019Z,20.76
2022-09-26T17:04:21.497Z,20.72
2022-09-26T17:06:48.855Z,20.65
2022-09-26T17:09:28.124Z,20.57
2022-09-26T17:12:14.078Z,20.59
2022-09-26T17:14:42.610Z,20.52
2022-09-26T17:17:25.784Z,20.41
2022-09-26T17:19:59.578Z,20.42
2022-09-26T17:22:28.378Z,20.43
2022-09-26T17:24:55.749Z,20.33
2022-09-26T17:27:30.556Z,20.32
2022-09-26T17:30:03.488Z,20.29
2022-09-26T17:32:37.432Z,20.26
2022-09-26T17:35:14.290Z,20.30
2022-09-26T17:37:41.898Z,20.22
2022-09-26T17:40:17.337Z,20.24
2022-09-26T17:42:45.618Z,20.21
2022-09-26T17:45:13.248Z,20.13
2022-09-26T17:47:40.811Z,20.13
2022-09-26T17:50:17.298Z,20.08
2022-09-26T17:52:45.207Z,20.01
2022-09-26T17:55:13.000Z,19.95
2022-09-26T17:57:41.883Z,19.86
2022-09-26T18:00:15.811Z,19.81
2022-09-26T18:02:46.386Z,19.79
2022-09-26T18:05:30.764Z,19.78
2022-09-26T18:08:19.736Z,19.72
2022-09-26T18:10:54.996Z,19.72
2022-09-26T18:13:26.185Z,19.70
2022-09-26T18:15:56.111Z,19.73
2022-09-26T18:18:25.337Z,19.78
2022-09-26T18:20:54.747Z,19.79
2022-09-26T18:23:25.976Z,19.78
2022-09-26T18:25:56.549Z,19.82
2022-09-26T18:28:23.947Z,19.81
2022-09-26T18:30:58.092Z,19.85
2022-09-26T18:33:28.805Z,19.85
2022-09-26T18:35:57.858Z,19.89
2022-09-26T18:38:25.388Z,19.92
2022-09-26T18:41:00.153Z,20.09
2022-09-26T18:43:39.060Z,20.19
2022-09-26T18:46:17.763Z,20.25
2022-09-26T18:48:46.361Z,20.26
2022-09-26T18:51:14.307Z,20.09
2022-09-26T18:53:42.048Z,20.03
2022-09-26T18:56:30.926Z,20.05
2022-09-26T18:58:58.347Z,20.11
2022-09-26T19:01:33.076Z,20.02
2022-09-26T19:04:02.903Z,19.81
2022-09-26T19:06:40.660Z,19.69
2022-09-26T19:09:13.692Z,19.62
2022-09-26T19:11:41.937Z,19.51
2022-09-26T19:14:24.598Z,19.40
2022-09-26T19:16:52.739Z,19.44
2022-09-26T19:19:20.854Z,19.49
2022-09-26T19:21:51.214Z,19.44
2022-09-26T19:24:54.312Z,19.47
2022-09-26T19:27:24.933Z,19.53
2022-09-26T19:30:02.813Z,19.56
2022-09-26T19:32:41.882Z,19.40
2022-09-26T19:35:27.085Z,19.51
2022-09-26T19:37:54.579Z,19.75
2022-09-26T19:40:24.690Z,19.69
2022-09-26T19:42:52.635Z,19.53
2022-09-26T19:45:20.851Z,19.40
2022-09-26T19:47:51.899Z,19.37
2022-09-26T19:50:25.768Z,19.38
2022-09-26T19:52:55.171Z,19.31
2022-09-26T19:55:24.813Z,19.40
2022-09-26T19:58:10.678Z,19.30
2022-09-26T20:00:41.511Z,19.37
2022-09-26T20:03:21.304Z,19.47
2022-09-26T20:05:50.169Z,19.41
2022-09-26T20:08:22.854Z,19.41
2022-09-26T20:10:50.858Z,19.39
2022-09-26T20:13:21.961Z,19.36
2022-09-26T20:15:49.994Z,19.40
2022-09-26T20:18:23.997Z,19.35
2022-09-26T20:20:54.551Z,19.20
2022-09-26T20:23:25.461Z,19.35
2022-09-26T20:25:54.444Z,19.20
2022-09-26T20:28:22.734Z,19.28
2022-09-26T20:30:54.158Z,19.15
2022-09-26T20:33:22.902Z,19.27
2022-09-26T20:36:01.681Z,19.21
2022-09-26T20:38:40.289Z,18.93
2022-09-26T20:41:13.481Z,18.70
2022-09-26T20:43:44.311Z,18.57
2022-09-26T20:46:12.545Z,18.40
2022-09-26T20:48:42.930Z,18.28
2022-09-26T20:51:31.158Z,18.10
2022-09-26T20:54:02.726Z,18.04
2022-09-26T20:56:30.236Z,18.02
2022-09-26T20:58:59.913Z,17.99
2022-09-26T21:01:28.809Z,17.82
2022-09-26T21:03:56.218Z,17.93
2022-09-26T21:06:28.207Z,17.92
2022-09-26T21:08:55.482Z,17.99
2022-09-26T21:11:22.922Z,18.07
2022-09-26T21:13:50.469Z,17.93
2022-09-26T21:16:20.118Z,18.00
2022-09-26T21:18:52.517Z,18.02
2022-09-26T21:21:25.756Z,18.08
2022-09-26T21:24:06.962Z,18.04
2022-09-26T21:26:34.545Z,18.05
2022-09-26T21:29:01.993Z,17.90
2022-09-26T21:31:34.329Z,17.71
2022-09-26T21:34:03.334Z,17.06
2022-09-26T21:36:35.505Z,16.58
2022-09-26T21:39:03.477Z,16.40
2022-09-26T21:41:31.075Z,16.26
2022-09-26T21:44:08.532Z,16.10
2022-09-26T21:46:36.037Z,16.02
2022-09-26T21:49:03.484Z,16.19
2022-09-26T21:51:31.571Z,15.96
2022-09-26T21:54:23.317Z,16.13
2022-09-26T21:57:16.889Z,16.05
2022-09-26T21:59:45.077Z,16.07
2022-09-26T22:02:12.506Z,16.07
2022-09-26T22:04:40.320Z,16.22
2022-09-26T22:07:07.791Z,16.03
2022-09-26T22:09:37.942Z,16.13
2022-09-26T22:12:05.765Z,16.22
2022-09-26T22:14:33.519Z,16.15
2022-09-26T22:17:00.906Z,15.99
2022-09-26T22:19:33.231Z,16.14
2022-09-26T22:22:01.641Z,16.18
2022-09-26T22:24:29.899Z,16.15
2022-09-26T22:26:57.292Z,15.97
2022-09-26T22:29:24.659Z,16.16
2022-09-26T22:31:52.044Z,16.20
2022-09-26T22:34:20.841Z,16.13
2022-09-26T22:36:49.282Z,15.96
2022-09-26T22:39:16.745Z,15.92
2022-09-26T22:41:44.277Z,15.80
2022-09-26T22:44:11.643Z,15.88
2022-09-26T22:46:39.079Z,15.92
2022-09-26T22:49:06.538Z,15.92
2022-09-26T22:51:34.534Z,15.71
2022-09-26T22:54:01.938Z,15.71
2022-09-26T22:56:29.633Z,15.97
2022-09-26T22:59:01.546Z,15.79
2022-09-26T23:01:29.112Z,15.78
2022-09-26T23:04:00.403Z,15.79
2022-09-26T23:06:28.140Z,15.63
2022-09-26T23:08:55.918Z,15.59
2022-09-26T23:11:24.311Z,15.46
2022-09-26T23:13:52.682Z,15.43
2022-09-26T23:16:22.474Z,15.48
2022-09-26T23:18:51.639Z,15.33
2022-09-26T23:21:21.851Z,15.26
2022-09-26T23:23:51.566Z,15.35
2022-09-26T23:26:24.695Z,15.49
2022-09-26T23:28:56.144Z,15.54
2022-09-26T23:31:25.159Z,15.39
2022-09-26T23:33:53.958Z,15.32
2022-09-26T23:36:21.748Z,15.40
2022-09-26T23:38:49.947Z,15.23
2022-09-26T23:41:17.979Z,15.23
2022-09-26T23:43:46.503Z,15.27
2022-09-26T23:46:14.194Z,15.30
2022-09-26T23:48:42.238Z,15.31
2022-09-26T23:51:09.698Z,15.21
2022-09-26T23:53:37.104Z,15.26
2022-09-26T23:56:04.699Z,15.22
2022-09-26T23:58:32.518Z,15.32
